Time;durP1;ratioP1;P1;durP2;ratioP2;P2;SDS_P1;SDS_P2;PMS_P1;PMS_P2;Temp;Humidity;BMP_temperature;BMP_pressure;BME280_temperature;BME280_humidity;BME280_pressure;Samples;Min_cycle;Max_cycle;Signal;HPM_P1;HPM_P2
2023/03/18 00:02:21;;;;;;;9.07;2.83;;;;;;;-148.88;79.62;75295.84;5016626;28;20068;-83
2023/03/18 00:04:47;;;;;;;6.95;3.00;;;;;;;-148.88;80.10;75295.84;5016482;28;20025;-83
2023/03/18 00:07:12;;;;;;;7.10;3.30;;;;;;;-148.88;82.35;75310.06;5016363;28;20470;-82
2023/03/18 00:09:37;;;;;;;7.45;3.20;;;;;;;-148.88;83.30;75318.19;5017450;28;20028;-82
2023/03/18 00:12:04;;;;;;;5.53;3.13;;;;;;;-148.88;84.62;75326.31;5033849;28;20101;-83
2023/03/18 00:14:30;;;;;;;7.32;4.55;;;;;;;-148.88;85.32;75336.47;5016156;28;20025;-82
2023/03/18 00:16:56;;;;;;;10.02;3.60;;;;;;;-148.88;85.72;75330.38;5034119;28;20021;-83
2023/03/18 00:19:23;;;;;;;6.70;3.85;;;;;;;-148.88;86.87;75334.44;5016086;28;20479;-82
2023/03/18 00:21:49;;;;;;;6.75;3.50;;;;;;;-148.88;87.66;75334.44;5015474;28;20021;-82
2023/03/18 00:24:15;;;;;;;8.00;3.10;;;;;;;-148.88;87.32;75322.25;5034359;28;20033;-83
2023/03/18 00:26:41;;;;;;;7.55;4.22;;;;;;;-148.88;88.50;75334.44;5016275;28;20049;-83
2023/03/18 00:29:07;;;;;;;7.53;3.58;;;;;;;-148.88;88.48;75332.41;5016511;28;20067;-82
2023/03/18 00:31:32;;;;;;;7.28;3.70;;;;;;;-148.88;89.24;75336.47;5033860;28;20394;-82
2023/03/18 00:33:58;;;;;;;8.88;3.65;;;;;;;-148.88;89.59;75340.53;5015857;28;20487;-83
2023/03/18 00:36:25;;;;;;;9.48;3.85;;;;;;;-148.88;90.89;75354.75;5015882;28;20028;-82
2023/03/18 00:38:56;;;;;;;7.22;4.00;;;;;;;-148.88;91.74;75354.75;5016113;28;20543;-85
2023/03/18 00:41:32;;;;;;;7.38;3.97;;;;;;;-148.88;92.86;75371.00;5033449;28;20017;-85
2023/03/18 00:43:57;;;;;;;6.57;3.78;;;;;;;-148.88;93.21;75364.91;5033359;28;20044;-85
2023/03/18 00:46:28;;;;;;;7.63;3.95;;;;;;;-148.88;94.53;75375.06;5033502;28;20411;-85
2023/03/18 00:48:58;;;;;;;9.85;4.05;;;;;;;-148.88;95.11;75366.94;5033442;28;20056;-85
2023/03/18 00:51:26;;;;;;;6.78;4.05;;;;;;;-148.88;97.24;75391.31;5033360;28;20026;-85
2023/03/18 00:53:54;;;;;;;7.65;4.65;;;;;;;-148.88;98.37;75385.22;5033267;28;20387;-85
2023/03/18 00:56:21;;;;;;;8.90;4.35;;;;;;;-148.88;99.69;75399.44;5015628;28;20025;-84
2023/03/18 00:58:48;;;;;;;8.20;4.60;;;;;;;-148.88;100.00;75403.50;5015606;28;20026;-84
2023/03/18 01:01:14;;;;;;;8.98;4.50;;;;;;;-148.88;100.00;75411.63;5033522;28;20475;-85
2023/03/18 01:03:43;;;;;;;8.30;4.45;;;;;;;-148.88;100.00;75407.56;5015542;28;20037;-85
2023/03/18 01:06:14;;;;;;;8.05;4.95;;;;;;;-148.88;100.00;75411.63;5015316;28;20116;-82
2023/03/18 01:08:40;;;;;;;6.80;4.47;;;;;;;-148.88;100.00;75403.50;5033278;28;20036;-82
2023/03/18 01:11:05;;;;;;;7.72;4.95;;;;;;;-148.88;100.00;75411.63;5015331;28;20104;-82
2023/03/18 01:13:32;;;;;;;7.20;3.38;;;;;;;-148.88;100.00;75411.63;5033361;28;20033;-82
2023/03/18 01:15:57;;;;;;;7.82;3.20;;;;;;;-148.88;100.00;75415.69;5033041;28;20029;-82
2023/03/18 01:18:23;;;;;;;9.95;5.32;;;;;;;-148.88;100.00;75409.59;5015345;28;20033;-82
2023/03/18 01:20:50;;;;;;;10.07;5.10;;;;;;;-148.88;100.00;75413.66;5032937;28;20034;-82
2023/03/18 01:23:16;;;;;;;10.10;5.25;;;;;;;-148.88;100.00;75415.69;5016116;28;20026;-83
2023/03/18 01:25:43;;;;;;;7.20;3.05;;;;;;;-148.88;100.00;75411.63;5016861;28;20025;-82
2023/03/18 01:28:09;;;;;;;9.55;3.63;;;;;;;-148.88;100.00;75403.50;5034887;28;20021;-83
2023/03/18 01:30:35;;;;;;;8.70;5.28;;;;;;;-148.88;100.00;75417.72;5034118;28;20029;-83
2023/03/18 01:33:03;;;;;;;10.18;5.35;;;;;;;-148.88;100.00;75423.81;5036892;28;20048;-83
2023/03/18 01:35:29;;;;;;;8.00;3.55;;;;;;;-148.88;100.00;75427.88;5021154;28;20038;-83
2023/03/18 01:37:54;;;;;;;10.32;5.35;;;;;;;-148.88;100.00;75413.66;5020187;28;20149;-84
2023/03/18 01:40:20;;;;;;;10.35;5.25;;;;;;;-148.88;100.00;75425.84;5036807;28;20021;-82
2023/03/18 01:42:57;;;;;;;9.65;6.22;;;;;;;-148.88;100.00;75427.88;5036814;28;20502;-81
2023/03/18 01:45:27;;;;;;;9.60;5.40;;;;;;;-148.88;100.00;75436.00;5019029;28;20112;-84
2023/03/18 01:47:54;;;;;;;9.90;5.72;;;;;;;-148.88;100.00;75444.13;5036846;28;20025;-85
2023/03/18 01:50:23;;;;;;;17.17;6.70;;;;;;;-148.88;100.00;75444.13;5018831;28;20021;-85
2023/03/18 01:52:53;;;;;;;9.40;4.38;;;;;;;-148.88;100.00;75446.16;5036693;28;20093;-85
2023/03/18 01:55:21;;;;;;;9.55;6.90;;;;;;;-148.88;100.00;75452.25;5036559;28;20025;-85
2023/03/18 01:57:48;;;;;;;10.15;6.70;;;;;;;-148.88;100.00;75462.41;5020113;28;20064;-85
2023/03/18 02:00:15;;;;;;;10.75;6.40;;;;;;;-148.88;100.00;75460.38;5037543;28;20025;-83
2023/03/18 02:02:43;;;;;;;8.10;4.15;;;;;;;-148.88;100.00;75458.34;5019370;28;20044;-83
2023/03/18 02:05:12;;;;;;;11.80;4.60;;;;;;;-148.88;100.00;75454.28;5019486;28;20025;-83
2023/03/18 02:07:39;;;;;;;10.90;6.32;;;;;;;-148.88;100.00;75466.47;5037095;28;20049;-83
2023/03/18 02:10:10;;;;;;;9.27;6.20;;;;;;;-148.88;100.00;75468.50;5037254;28;20541;-82
2023/03/18 02:12:37;;;;;;;16.52;7.22;;;;;;;-148.88;100.00;75468.50;5037006;28;20052;-83
2023/03/18 02:15:09;;;;;;;10.57;5.00;;;;;;;-148.88;100.00;75478.66;5018476;28;20018;-83
2023/03/18 02:17:39;;;;;;;7.85;4.00;;;;;;;-148.88;100.00;75472.56;5018565;28;20048;-83
2023/03/18 02:20:17;;;;;;;12.70;4.43;;;;;;;-148.88;100.00;75472.56;5036085;28;20021;-83
2023/03/18 02:23:18;;;;;;;11.82;6.75;;;;;;;-148.88;100.00;75468.50;5036369;28;20472;-82
2023/03/18 02:25:58;;;;;;;12.43;7.22;;;;;;;-148.88;100.00;75468.50;5018106;28;20029;-83
2023/03/18 02:28:27;;;;;;;11.07;4.57;;;;;;;-148.88;100.00;75462.41;5036017;28;20021;-83
2023/03/18 02:30:57;;;;;;;13.18;7.32;;;;;;;-148.88;100.00;75456.31;5036309;28;20464;-83
2023/03/18 02:33:27;;;;;;;10.27;4.63;;;;;;;-148.88;100.00;75452.25;5036853;28;20028;-83
2023/03/18 02:36:02;;;;;;;10.43;6.55;;;;;;;-148.88;100.00;75440.06;5018535;28;20368;-82
2023/03/18 02:38:27;;;;;;;11.68;6.75;;;;;;;-148.88;100.00;75411.63;5036696;28;20029;-83
2023/03/18 02:40:52;;;;;;;12.13;6.93;;;;;;;-148.88;100.00;75438.03;5018832;28;20075;-83
2023/03/18 02:43:24;;;;;;;12.07;7.50;;;;;;;-148.88;100.00;75433.97;5036607;28;20030;-83
2023/03/18 02:45:58;;;;;;;13.93;6.57;;;;;;;-148.88;100.00;75427.88;5036490;28;20479;-82
2023/03/18 02:48:29;;;;;;;13.27;5.20;;;;;;;-148.88;100.00;75423.81;5018477;28;20116;-84
2023/03/18 02:50:56;;;;;;;11.10;4.35;;;;;;;-148.88;100.00;75427.88;5035496;28;20021;-83
2023/03/18 02:53:21;;;;;;;11.52;6.10;;;;;;;-148.88;100.00;75431.94;5035619;28;20415;-83
2023/03/18 02:55:46;;;;;;;11.35;6.50;;;;;;;-148.88;100.00;75436.00;5036029;28;20505;-82
2023/03/18 02:58:14;;;;;;;12.75;7.35;;;;;;;-148.88;100.00;75429.91;5035933;28;20115;-83
2023/03/18 03:00:39;;;;;;;9.73;6.53;;;;;;;-148.88;100.00;75436.00;5017950;28;20029;-83
2023/03/18 03:03:05;;;;;;;11.18;6.80;;;;;;;-148.88;100.00;75421.78;5017503;28;20029;-83
2023/03/18 03:05:33;;;;;;;15.48;7.30;;;;;;;-148.88;100.00;75433.97;5035484;28;20026;-83
2023/03/18 03:07:58;;;;;;;10.63;4.55;;;;;;;-148.88;100.00;75436.00;5035958;28;20083;-83
2023/03/18 03:10:24;;;;;;;10.68;4.30;;;;;;;-148.88;100.00;75444.13;5017989;28;20433;-83
2023/03/18 03:12:50;;;;;;;13.60;6.63;;;;;;;-148.88;100.00;75440.06;5035703;28;20021;-83
2023/03/18 03:15:15;;;;;;;12.07;6.65;;;;;;;-148.88;100.00;75438.03;5017774;28;20044;-83
2023/03/18 03:17:41;;;;;;;11.63;6.90;;;;;;;-148.88;100.00;75436.00;5017675;28;20422;-83
2023/03/18 03:20:09;;;;;;;12.63;6.45;;;;;;;-148.88;100.00;75433.97;5017564;28;20022;-83
2023/03/18 03:22:35;;;;;;;13.52;6.10;;;;;;;-148.88;100.00;75431.94;5017428;28;20025;-84
2023/03/18 03:25:01;;;;;;;11.50;6.45;;;;;;;-148.88;100.00;75427.88;5035010;28;20399;-83
2023/03/18 03:27:27;;;;;;;11.43;5.82;;;;;;;-148.88;100.00;75413.66;5017125;28;20067;-82
2023/03/18 03:29:52;;;;;;;13.50;6.22;;;;;;;-148.88;100.00;75423.81;5035061;28;20048;-83
2023/03/18 03:32:18;;;;;;;11.02;5.60;;;;;;;-148.88;100.00;75419.75;5017172;28;20483;-83
2023/03/18 03:34:43;;;;;;;12.77;6.05;;;;;;;-148.88;100.00;75415.69;5034986;28;20035;-84
2023/03/18 03:37:09;;;;;;;9.40;5.50;;;;;;;-148.88;100.00;75403.50;5034720;28;20076;-83
2023/03/18 03:39:34;;;;;;;11.45;5.55;;;;;;;-148.88;100.00;75409.59;5018164;28;20116;-84
2023/03/18 03:41:59;;;;;;;10.77;5.57;;;;;;;-148.88;100.00;75407.56;5035395;28;20067;-84
2023/03/18 03:44:25;;;;;;;9.57;5.20;;;;;;;-148.88;100.00;75407.56;5017648;28;20029;-83
2023/03/18 03:46:50;;;;;;;10.82;5.15;;;;;;;-148.88;100.00;75407.56;5035767;28;20024;-83
2023/03/18 03:49:17;;;;;;;12.57;5.35;;;;;;;-148.88;100.00;75389.28;5035815;28;20030;-84
2023/03/18 03:51:42;;;;;;;8.88;3.63;;;;;;;-148.88;100.00;75411.63;5017514;28;20025;-82
2023/03/18 03:54:09;;;;;;;8.75;5.40;;;;;;;-148.88;100.00;75423.81;5017899;28;20025;-83
2023/03/18 03:56:34;;;;;;;9.57;5.20;;;;;;;-148.88;100.00;75411.63;5016011;28;20029;-85
2023/03/18 03:59:00;;;;;;;10.05;5.35;;;;;;;-148.88;100.00;75427.88;5034685;28;20075;-84
2023/03/18 04:01:26;;;;;;;9.80;5.03;;;;;;;-148.88;100.00;75431.94;5034584;28;20163;-84
2023/03/18 04:03:51;;;;;;;13.18;5.82;;;;;;;-148.88;100.00;75452.25;5016384;28;20435;-84
2023/03/18 04:06:16;;;;;;;11.23;5.22;;;;;;;-148.88;100.00;75464.44;5034588;28;20039;-85
2023/03/18 04:08:42;;;;;;;11.00;5.55;;;;;;;-148.88;100.00;75464.44;5034077;28;20376;-83
2023/03/18 04:11:07;;;;;;;9.77;5.25;;;;;;;-148.88;100.00;75472.56;5034036;28;20061;-83
2023/03/18 04:13:33;;;;;;;11.07;6.00;;;;;;;-148.88;100.00;75476.63;5018844;28;20025;-83
2023/03/18 04:15:59;;;;;;;10.48;5.28;;;;;;;-148.88;100.00;75472.56;5016766;28;20391;-83
2023/03/18 04:18:24;;;;;;;9.60;5.15;;;;;;;-148.88;100.00;75468.50;5019108;28;20021;-83
2023/03/18 04:20:50;;;;;;;10.43;5.53;;;;;;;-148.88;100.00;75468.50;5017250;28;20376;-85
2023/03/18 04:23:16;;;;;;;11.98;5.90;;;;;;;-148.88;100.00;75472.56;5019850;28;20438;-83
2023/03/18 04:25:41;;;;;;;11.98;6.00;;;;;;;-148.88;100.00;75492.88;5019561;28;20022;-83
2023/03/18 04:28:07;;;;;;;12.27;5.28;;;;;;;-148.88;100.00;75488.81;5034791;28;20028;-83
2023/03/18 04:30:32;;;;;;;8.18;5.53;;;;;;;-148.88;100.00;75486.78;5016240;28;20551;-84
2023/03/18 04:33:00;;;;;;;9.45;5.32;;;;;;;-148.88;100.00;75488.81;5017086;28;20017;-85
2023/03/18 04:35:25;;;;;;;9.98;5.35;;;;;;;-148.88;100.00;75494.91;5015869;28;20032;-83
2023/03/18 04:37:51;;;;;;;9.18;5.38;;;;;;;-148.88;100.00;75490.84;5033485;28;20025;-83
2023/03/18 04:40:17;;;;;;;10.18;5.68;;;;;;;-148.88;100.00;75501.00;5033831;28;20025;-82
2023/03/18 04:42:44;;;;;;;8.90;5.18;;;;;;;-148.88;100.00;75501.00;5015749;28;20545;-83
2023/03/18 04:45:10;;;;;;;11.23;6.00;;;;;;;-148.88;100.00;75509.13;5016031;28;20066;-83
2023/03/18 04:47:36;;;;;;;11.13;6.15;;;;;;;-148.88;100.00;75517.25;5016411;28;20120;-85
2023/03/18 04:50:03;;;;;;;11.25;5.70;;;;;;;-148.88;100.00;75519.28;5017984;28;20025;-85
2023/03/18 04:52:28;;;;;;;12.07;4.97;;;;;;;-148.88;100.00;75515.22;5017107;28;20018;-85
2023/03/18 04:54:54;;;;;;;12.88;4.32;;;;;;;-148.88;100.00;75513.19;5034268;28;20108;-85
2023/03/18 04:57:19;;;;;;;9.45;3.92;;;;;;;-148.88;100.00;75509.13;5038565;28;20049;-84
2023/03/18 04:59:45;;;;;;;11.43;5.78;;;;;;;-148.88;100.00;75521.31;5019863;28;20041;-83
2023/03/18 05:02:13;;;;;;;10.27;5.70;;;;;;;-148.88;100.00;75537.56;5017932;28;20116;-85
2023/03/18 05:04:38;;;;;;;10.43;5.60;;;;;;;-148.88;100.00;75527.41;5015482;28;20040;-85
2023/03/18 05:07:04;;;;;;;9.80;5.82;;;;;;;-148.88;100.00;75519.28;5033484;28;20116;-84
2023/03/18 05:09:30;;;;;;;11.93;6.00;;;;;;;-148.88;100.00;75519.28;5015704;28;20059;-83
2023/03/18 05:11:55;;;;;;;14.30;6.22;;;;;;;-148.88;100.00;75517.25;5015343;28;20044;-85
2023/03/18 05:14:21;;;;;;;8.73;4.07;;;;;;;-148.88;100.00;75521.31;5033047;28;20022;-85
2023/03/18 05:16:46;;;;;;;9.63;5.75;;;;;;;-148.88;100.00;75517.25;5015334;28;20025;-85
2023/03/18 05:19:12;;;;;;;10.43;5.88;;;;;;;-148.88;100.00;75521.31;5033684;28;20079;-83
2023/03/18 05:21:38;;;;;;;10.25;4.28;;;;;;;-148.88;100.00;75525.38;5034020;28;20025;-84
2023/03/18 05:24:03;;;;;;;10.93;6.25;;;;;;;-148.88;100.00;75515.22;5016406;28;20032;-84
2023/03/18 05:26:29;;;;;;;11.00;4.20;;;;;;;-148.88;100.00;75515.22;5033656;28;20021;-85
2023/03/18 05:28:54;;;;;;;13.98;6.20;;;;;;;-148.88;100.00;75519.28;5034425;28;20021;-85
2023/03/18 05:31:20;;;;;;;11.43;6.75;;;;;;;-148.88;100.00;75521.31;5033513;28;20084;-84
2023/03/18 05:33:46;;;;;;;9.50;6.13;;;;;;;-148.88;100.00;75507.09;5036950;28;20025;-85
2023/03/18 05:36:12;;;;;;;11.90;6.28;;;;;;;-148.88;100.00;75521.31;5015704;28;20036;-84
2023/03/18 05:38:37;;;;;;;9.68;6.25;;;;;;;-148.88;100.00;75513.19;5033765;28;20391;-84
2023/03/18 05:41:03;;;;;;;9.35;5.85;;;;;;;-148.88;100.00;75509.13;5016086;28;20029;-84
2023/03/18 05:43:28;;;;;;;9.30;5.43;;;;;;;-148.88;100.00;75509.13;5033231;28;20033;-85
2023/03/18 05:45:54;;;;;;;10.00;3.83;;;;;;;-148.88;100.00;75519.28;5015131;28;20112;-85
2023/03/18 05:48:20;;;;;;;7.70;5.80;;;;;;;-148.88;100.00;75529.44;5033129;28;20017;-83
2023/03/18 05:50:46;;;;;;;10.80;5.72;;;;;;;-148.88;100.00;75533.50;5015295;28;20028;-85
2023/03/18 05:53:12;;;;;;;9.70;5.68;;;;;;;-148.88;100.00;75529.44;5032701;28;20025;-86
2023/03/18 05:55:39;;;;;;;9.88;5.55;;;;;;;-148.88;100.00;75531.47;5015812;28;20021;-85
2023/03/18 05:58:06;;;;;;;9.45;4.72;;;;;;;-148.88;100.00;75533.50;5015340;28;20053;-85
2023/03/18 06:00:31;;;;;;;10.73;3.85;;;;;;;-148.88;100.00;75533.50;5015925;28;20064;-85
2023/03/18 06:02:58;;;;;;;13.27;6.78;;;;;;;-148.88;100.00;75537.56;5032858;28;20033;-85
2023/03/18 06:05:24;;;;;;;10.25;5.90;;;;;;;-148.88;100.00;75533.50;5033328;28;20434;-84
2023/03/18 06:07:52;;;;;;;10.05;5.82;;;;;;;-148.88;100.00;75529.44;5015065;28;20112;-84
2023/03/18 06:10:18;;;;;;;11.35;5.97;;;;;;;-148.88;100.00;75539.59;5014803;28;20025;-86
2023/03/18 06:12:44;;;;;;;11.25;5.50;;;;;;;-148.88;100.00;75537.56;5014930;28;20422;-85
2023/03/18 06:15:11;;;;;;;9.30;5.78;;;;;;;-148.88;100.00;75529.44;5014789;28;20029;-84
2023/03/18 06:17:37;;;;;;;10.45;5.97;;;;;;;-148.88;100.00;75517.25;5032601;28;20029;-88
2023/03/18 06:20:05;;;;;;;11.40;5.93;;;;;;;-148.88;100.00;75525.38;5034792;28;20032;-89
2023/03/18 06:22:31;;;;;;;10.32;5.85;;;;;;;-148.88;100.00;75521.31;5036153;28;20032;-88
2023/03/18 06:24:57;;;;;;;10.63;6.35;;;;;;;-148.88;100.00;75515.22;5036305;28;20021;-88
2023/03/18 06:27:23;;;;;;;9.30;6.10;;;;;;;-148.88;100.00;75517.25;5036242;28;20017;-88
2023/03/18 06:29:48;;;;;;;12.48;6.43;;;;;;;-148.88;100.00;75505.06;5036712;28;20032;-85
2023/03/18 06:32:13;;;;;;;10.75;6.43;;;;;;;-148.88;100.00;75496.94;5035915;28;20025;-87
2023/03/18 06:34:39;;;;;;;8.57;5.40;;;;;;;-148.88;100.00;75496.94;5036386;28;20028;-86
2023/03/18 06:37:06;;;;;;;10.30;6.07;;;;;;;-148.88;100.00;75486.78;5035893;28;20089;-86
2023/03/18 06:39:33;;;;;;;12.18;6.35;;;;;;;-148.88;100.00;75488.81;5035911;28;20029;-87
2023/03/18 06:41:59;;;;;;;10.52;6.05;;;;;;;-148.88;100.00;75492.88;5018306;28;20029;-86
2023/03/18 06:44:25;;;;;;;10.48;6.05;;;;;;;-148.88;100.00;75490.84;5035809;28;20018;-87
2023/03/18 06:46:50;;;;;;;11.60;5.95;;;;;;;-148.88;100.00;75484.75;5035744;28;20096;-88
2023/03/18 06:49:16;;;;;;;9.25;5.95;;;;;;;-148.88;100.00;75492.88;5035655;28;20113;-87
2023/03/18 06:51:42;;;;;;;10.63;5.82;;;;;;;-148.88;100.00;75505.06;5035638;28;20039;-87
2023/03/18 06:54:08;;;;;;;10.93;6.07;;;;;;;-148.88;100.00;75501.00;5035594;28;20017;-87
2023/03/18 06:56:36;;;;;;;12.10;6.35;;;;;;;-148.88;100.00;75492.88;5035987;28;20084;-87
2023/03/18 06:59:02;;;;;;;9.27;5.85;;;;;;;-148.88;100.00;75488.81;5035913;28;20036;-87
2023/03/18 07:01:29;;;;;;;10.25;5.90;;;;;;;-148.88;100.00;75492.88;5017555;28;20021;-87
2023/03/18 07:03:54;;;;;;;7.75;3.97;;;;;;;-148.88;100.00;75482.72;5035276;28;20029;-88
2023/03/18 07:06:20;;;;;;;13.55;6.30;;;;;;;-148.88;100.00;75480.69;5017681;28;20031;-85
2023/03/18 07:08:46;;;;;;;11.52;6.28;;;;;;;-148.88;100.00;75482.72;5035182;28;20061;-86
2023/03/18 07:11:11;;;;;;;13.88;6.43;;;;;;;-148.88;100.00;75466.47;5017827;28;20060;-86
2023/03/18 07:13:36;;;;;;;10.38;6.50;;;;;;;-148.88;100.00;75466.47;5035211;28;20013;-85
2023/03/18 07:16:02;;;;;;;10.70;6.90;;;;;;;-148.88;100.00;75476.63;5035204;28;20028;-85
2023/03/18 07:18:27;;;;;;;11.73;6.40;;;;;;;-148.88;100.00;75474.59;5035332;28;20030;-86
2023/03/18 07:20:53;;;;;;;8.63;5.95;;;;;;;-148.88;100.00;75472.56;5034998;28;20075;-85
2023/03/18 07:23:19;;;;;;;9.15;5.55;;;;;;;-148.88;100.00;75476.63;5017722;28;20454;-85
2023/03/18 07:25:45;;;;;;;10.00;6.50;;;;;;;-148.88;100.00;75474.59;5034828;28;20028;-85
2023/03/18 07:28:10;;;;;;;9.85;6.22;;;;;;;-148.88;100.00;75482.72;5035132;28;20030;-86
2023/03/18 07:30:37;;;;;;;9.52;6.18;;;;;;;-148.88;100.00;75496.94;5035032;28;20479;-87
2023/03/18 07:33:02;;;;;;;12.07;6.47;;;;;;;-148.88;100.00;75492.88;5035095;28;20036;-86
2023/03/18 07:35:28;;;;;;;10.90;6.13;;;;;;;-148.88;100.00;75480.69;5034809;28;20021;-86
2023/03/18 07:37:53;;;;;;;9.00;6.03;;;;;;;-148.88;100.00;75478.66;5035103;28;20033;-86
2023/03/18 07:40:19;;;;;;;8.63;5.45;;;;;;;-148.88;100.00;75472.56;5034941;28;20040;-86
2023/03/18 07:42:44;;;;;;;9.52;6.18;;;;;;;-148.88;100.00;75452.25;5034972;28;20160;-87
2023/03/18 07:45:10;;;;;;;10.27;6.20;;;;;;;-148.88;100.00;75450.22;5034707;28;20481;-85
2023/03/18 07:47:36;;;;;;;9.27;6.18;;;;;;;-148.88;100.00;75456.31;5034530;28;20032;-86
2023/03/18 07:50:03;;;;;;;8.40;5.93;;;;;;;-148.88;100.00;75450.22;5034852;28;20543;-89
2023/03/18 07:52:28;;;;;;;9.68;5.70;;;;;;;-148.88;100.00;75438.03;5016812;28;20116;-88
2023/03/18 07:54:54;;;;;;;9.57;6.00;;;;;;;-148.88;100.00;75433.97;5016940;28;20068;-87
2023/03/18 07:57:19;;;;;;;12.38;6.70;;;;;;;-148.88;100.00;75431.94;5017242;28;20025;-88
2023/03/18 07:59:44;;;;;;;9.05;5.82;;;;;;;-148.88;100.00;75415.69;5034383;28;20021;-88
2023/03/18 08:02:13;;;;;;;9.45;5.85;;;;;;;-148.88;100.00;75409.59;5034510;28;20034;-88
2023/03/18 08:04:39;;;;;;;9.82;6.00;;;;;;;-148.88;100.00;75407.56;5017030;28;20120;-89
2023/03/18 08:07:04;;;;;;;9.57;5.95;;;;;;;-148.88;100.00;75401.47;5034463;28;20103;-87
2023/03/18 08:09:29;;;;;;;10.80;5.85;;;;;;;-148.88;100.00;75438.03;5010147;28;20108;-87
2023/03/18 08:11:54;;;;;;;7.20;5.90;;;;;;;-148.88;100.00;75423.81;5016290;28;20053;-85
2023/03/18 08:14:20;;;;;;;9.15;5.88;;;;;;;-148.88;100.00;75427.88;5029927;28;20022;-86
2023/03/18 08:16:46;;;;;;;11.90;5.57;;;;;;;-148.88;100.00;75431.94;5014286;28;20029;-87
2023/03/18 08:19:12;;;;;;;9.25;5.28;;;;;;;-148.88;100.00;75431.94;5013100;28;20381;-87
2023/03/18 08:21:37;;;;;;;9.63;5.60;;;;;;;-148.88;100.00;75423.81;5014199;28;20052;-88
2023/03/18 08:24:03;;;;;;;7.38;5.00;;;;;;;-148.88;100.00;75421.78;4996595;28;20033;-88
2023/03/18 08:26:28;;;;;;;10.13;5.97;;;;;;;-148.88;100.00;75423.81;5013986;28;20029;-86
2023/03/18 08:28:54;;;;;;;10.02;6.03;;;;;;;-148.88;100.00;75440.06;5014113;28;20037;-86
2023/03/18 08:31:19;;;;;;;9.63;5.63;;;;;;;-148.88;100.00;75440.06;5013563;28;20030;-86
2023/03/18 08:33:45;;;;;;;7.82;5.85;;;;;;;-148.88;100.00;75438.03;5014076;28;20054;-86
2023/03/18 08:36:11;;;;;;;9.75;6.15;;;;;;;-148.88;100.00;75436.00;5014097;28;20044;-86
2023/03/18 08:38:36;;;;;;;9.57;5.85;;;;;;;-148.88;100.00;75433.97;5014251;28;20034;-88
2023/03/18 08:41:02;;;;;;;9.82;6.28;;;;;;;-148.88;100.00;75438.03;5014234;28;20104;-91
2023/03/18 08:43:28;;;;;;;8.00;5.03;;;;;;;-148.88;100.00;75423.81;4996360;28;20030;-89
2023/03/18 08:45:53;;;;;;;7.30;5.50;;;;;;;-148.88;100.00;75425.84;5013931;28;20096;-88
2023/03/18 08:48:19;;;;;;;10.30;6.13;;;;;;;-148.88;100.00;75436.00;5013861;28;20026;-89
2023/03/18 08:50:45;;;;;;;9.25;6.10;;;;;;;-148.88;100.00;75436.00;5014058;28;20037;-85
2023/03/18 08:53:12;;;;;;;9.73;6.25;;;;;;;-148.88;100.00;75436.00;4995953;28;20017;-89
2023/03/18 08:55:38;;;;;;;9.25;5.90;;;;;;;-148.88;100.00;75436.00;5013770;28;20049;-88
2023/03/18 08:58:05;;;;;;;11.90;6.10;;;;;;;-148.88;100.00;75427.88;4995979;28;20026;-88
2023/03/18 09:00:31;;;;;;;9.55;6.32;;;;;;;-148.88;100.00;75423.81;5013941;28;20057;-88
2023/03/18 09:02:57;;;;;;;11.73;6.57;;;;;;;-148.88;100.00;75429.91;4996248;28;20038;-88
2023/03/18 09:05:23;;;;;;;11.70;6.22;;;;;;;-148.88;100.00;75425.84;5014279;28;20100;-88
2023/03/18 09:07:50;;;;;;;10.82;6.55;;;;;;;-148.88;100.00;75415.69;5013885;28;20109;-87
2023/03/18 09:10:17;;;;;;;9.35;6.10;;;;;;;-148.88;100.00;75403.50;5013895;28;20026;-87
2023/03/18 09:12:44;;;;;;;13.60;6.80;;;;;;;-148.88;100.00;75385.22;4995074;28;20030;-88
2023/03/18 09:15:11;;;;;;;10.95;6.40;;;;;;;-148.88;100.00;75373.03;5013662;28;20037;-88
2023/03/18 09:17:39;;;;;;;12.90;6.90;;;;;;;-148.88;100.00;75336.47;5013618;28;20071;-87
2023/03/18 09:20:10;;;;;;;10.25;6.25;;;;;;;-148.88;100.00;75342.56;5013316;28;20060;-88
2023/03/18 09:22:36;;;;;;;10.35;6.68;;;;;;;-148.88;100.00;75340.53;4995903;28;20037;-86
2023/03/18 09:25:01;;;;;;;13.15;8.50;;;;;;;-148.88;99.90;75354.75;4996063;28;20030;-85
2023/03/18 09:27:27;;;;;;;14.20;9.63;;;;;;;-148.88;100.00;75377.09;4995724;28;20036;-87
2023/03/18 09:29:52;;;;;;;14.32;9.68;;;;;;;-148.88;100.00;75387.25;5013494;28;20036;-85
2023/03/18 09:32:18;;;;;;;15.27;10.25;;;;;;;-148.88;100.00;75381.16;5013217;28;20076;-84
2023/03/18 09:34:43;;;;;;;15.88;10.38;;;;;;;-148.88;100.00;75379.13;4996103;28;20018;-87
2023/03/18 09:37:10;;;;;;;17.40;11.45;;;;;;;-148.88;100.00;75393.34;5013704;28;20479;-87
2023/03/18 09:39:36;;;;;;;19.55;11.35;;;;;;;-148.88;100.00;75373.03;5013288;28;20432;-86
2023/03/18 09:42:27;;;;;;;15.20;11.23;;;;;;;-148.88;100.00;75366.94;5013209;28;20030;-86
2023/03/18 09:45:09;;;;;;;20.40;12.40;;;;;;;-148.88;98.93;75344.59;5013038;28;20034;-87
2023/03/18 09:48:04;;;;;;;17.92;11.70;;;;;;;-148.88;100.00;75346.63;5013193;28;20105;-86
2023/03/18 09:50:50;;;;;;;18.60;11.65;;;;;;;-148.88;99.91;75326.31;5013289;28;20480;-87
2023/03/18 09:53:22;;;;;;;17.05;12.50;;;;;;;-148.88;99.33;75322.25;5013971;28;20029;-86
2023/03/18 09:55:52;;;;;;;18.52;12.68;;;;;;;-148.88;99.15;75326.31;5016823;28;20476;-87
2023/03/18 09:58:53;;;;;;;16.58;12.57;;;;;;;-148.88;98.36;75324.28;4999606;28;20060;-88
2023/03/18 10:01:21;;;;;;;18.02;13.50;;;;;;;-148.88;98.45;75308.03;5017859;28;20107;-88
2023/03/18 10:04:24;;;;;;;18.77;13.18;;;;;;;-148.88;97.10;75299.91;5018119;28;20056;-88
2023/03/18 10:06:59;;;;;;;15.55;12.20;;;;;;;-148.88;97.66;75334.44;4997327;28;20121;-86
2023/03/18 10:09:41;;;;;;;19.08;12.70;;;;;;;-148.88;96.49;75303.97;5018816;28;20511;-86
2023/03/18 10:12:41;;;;;;;18.83;12.55;;;;;;;-148.88;94.98;75281.66;5017997;28;20038;-87
2023/03/18 10:15:09;;;;;;;17.50;13.18;;;;;;;-148.88;95.92;75297.88;5017258;28;20044;-87
2023/03/18 10:17:40;;;;;;;17.08;12.20;;;;;;;-148.88;96.89;75289.75;5017089;28;20052;-89
2023/03/18 10:20:38;;;;;;;15.55;11.82;;;;;;;-148.88;96.13;75271.50;5018774;28;20021;-89
2023/03/18 10:23:26;;;;;;;18.30;12.52;;;;;;;-148.88;96.74;75273.53;4983328;28;20126;-87
2023/03/18 10:25:54;;;;;;;17.17;14.02;;;;;;;-148.88;95.20;75263.38;5017012;28;20018;-87
2023/03/18 10:28:41;;;;;;;19.88;13.75;;;;;;;-148.88;94.97;75257.28;5017149;28;20022;-87
2023/03/18 10:31:17;;;;;;;19.65;14.43;;;;;;;-148.88;96.22;75271.50;5017098;28;20030;-86
2023/03/18 10:34:05;;;;;;;20.48;14.38;;;;;;;-148.88;96.50;75249.16;5016693;28;20034;-85
2023/03/18 10:36:38;;;;;;;16.73;13.00;;;;;;;-148.88;94.56;75232.91;5017098;28;20026;-88
2023/03/18 10:39:14;;;;;;;19.67;14.07;;;;;;;-148.88;95.62;75232.91;5002417;28;20060;-89
2023/03/18 10:41:42;;;;;;;17.90;12.57;;;;;;;-148.88;93.79;75216.66;5017513;28;20128;-90
2023/03/18 10:44:39;;;;;;;17.92;13.93;;;;;;;-148.88;91.92;75204.47;5001246;28;20021;-87
2023/03/18 10:47:18;;;;;;;21.63;15.93;;;;;;;-148.88;93.23;75257.28;5002910;28;20084;-87
2023/03/18 10:50:12;;;;;;;23.73;17.88;;;;;;;-148.88;93.58;75273.53;4999557;28;20116;-88
2023/03/18 10:53:12;;;;;;;17.98;15.15;;;;;;;-148.88;93.36;75269.47;5000815;28;20037;-87
2023/03/18 10:55:53;;;;;;;22.33;16.15;;;;;;;-148.88;92.32;75230.88;4984639;28;20034;-88
2023/03/18 10:58:19;;;;;;;20.75;15.68;;;;;;;-148.88;91.62;75202.44;5017020;28;20022;-88
2023/03/18 11:00:45;;;;;;;20.02;14.65;;;;;;;-148.88;91.63;75186.19;5017751;28;20026;-89
2023/03/18 11:03:28;;;;;;;19.60;15.73;;;;;;;-148.88;90.07;75131.34;5001707;28;20539;-90
2023/03/18 11:05:56;;;;;;;17.17;14.40;;;;;;;-148.88;88.36;75111.03;4998043;28;20471;-90
2023/03/18 11:08:27;;;;;;;18.63;15.05;;;;;;;-148.88;85.94;75082.63;4998962;28;20053;-89
2023/03/18 11:10:53;;;;;;;16.73;13.63;;;;;;;-148.88;87.41;75044.03;5016630;28;20030;-89